createdAt,value
2022-10-26T00:00:50.452Z,0.00
2022-10-26T00:01:50.539Z,0.00
2022-10-26T00:02:50.971Z,0.00
2022-10-26T00:03:50.422Z,0.00
2022-10-26T00:04:50.412Z,0.00
2022-10-26T00:05:50.401Z,0.00
2022-10-26T00:06:50.385Z,0.00
2022-10-26T00:07:50.442Z,0.00
2022-10-26T00:08:50.367Z,0.00
2022-10-26T00:09:50.361Z,0.00
2022-10-26T00:10:50.342Z,0.00
2022-10-26T00:11:50.334Z,0.00
2022-10-26T00:12:50.614Z,0.00
2022-10-26T00:13:50.312Z,0.00
2022-10-26T00:14:50.295Z,0.00
2022-10-26T00:15:50.333Z,0.00
2022-10-26T00:16:50.273Z,0.00
2022-10-26T00:17:50.530Z,0.00
2022-10-26T00:18:50.252Z,0.00
2022-10-26T00:19:50.247Z,0.00
2022-10-26T00:20:50.229Z,0.00
2022-10-26T00:21:50.223Z,0.00
2022-10-26T00:22:50.216Z,0.00
2022-10-26T00:23:50.200Z,0.00
2022-10-26T00:24:50.190Z,0.00
2022-10-26T00:25:50.179Z,0.00
2022-10-26T00:26:50.165Z,0.00
2022-10-26T00:27:50.529Z,0.00
2022-10-26T00:28:50.155Z,0.00
2022-10-26T00:29:50.136Z,0.00
2022-10-26T00:30:50.122Z,0.00
2022-10-26T00:31:50.118Z,0.00
2022-10-26T00:32:50.101Z,0.00
2022-10-26T00:33:50.101Z,0.00
2022-10-26T00:34:50.093Z,0.00
2022-10-26T00:35:50.070Z,0.00
2022-10-26T00:36:50.054Z,0.00
2022-10-26T00:37:50.325Z,0.00
2022-10-26T00:38:50.053Z,0.00
2022-10-26T00:39:50.035Z,0.00
2022-10-26T00:40:50.080Z,0.00
2022-10-26T00:41:50.002Z,0.00
2022-10-26T00:42:50.313Z,0.00
2022-10-26T00:43:49.985Z,0.00
2022-10-26T00:44:49.969Z,0.00
2022-10-26T00:45:49.953Z,0.00
2022-10-26T00:46:49.946Z,0.00
2022-10-26T00:47:49.930Z,0.00
2022-10-26T00:48:49.941Z,0.00
2022-10-26T00:49:49.909Z,0.00
2022-10-26T00:50:49.997Z,0.00
2022-10-26T00:51:49.904Z,0.00
2022-10-26T00:52:50.179Z,0.00
2022-10-26T00:53:49.872Z,0.00
2022-10-26T00:54:49.858Z,0.00
2022-10-26T00:55:49.842Z,0.00
2022-10-26T00:56:49.835Z,0.00
2022-10-26T00:57:49.825Z,0.00
2022-10-26T00:58:49.826Z,0.00
2022-10-26T00:59:49.800Z,0.00
2022-10-26T01:00:49.793Z,0.00
2022-10-26T01:01:49.831Z,0.00
2022-10-26T01:02:50.026Z,0.00
2022-10-26T01:03:49.802Z,0.00
2022-10-26T01:04:49.778Z,0.00
2022-10-26T01:05:49.733Z,0.00
2022-10-26T01:06:49.725Z,0.00
2022-10-26T01:07:49.953Z,0.00
2022-10-26T01:08:49.789Z,0.00
2022-10-26T01:09:49.688Z,0.00
2022-10-26T01:10:49.683Z,0.00
2022-10-26T01:11:49.664Z,0.00
2022-10-26T01:12:49.659Z,0.00
2022-10-26T01:13:49.652Z,0.00
2022-10-26T01:14:49.636Z,0.00
2022-10-26T01:15:49.621Z,0.00
2022-10-26T01:16:49.616Z,0.00
2022-10-26T01:17:50.028Z,0.00
2022-10-26T01:18:49.602Z,0.00
2022-10-26T01:19:49.577Z,0.00
2022-10-26T01:20:49.568Z,0.00
2022-10-26T01:21:49.563Z,0.00
2022-10-26T01:22:49.546Z,0.00
2022-10-26T01:23:49.579Z,0.00
2022-10-26T01:24:49.529Z,0.00
2022-10-26T01:25:49.516Z,0.00
2022-10-26T01:26:49.603Z,0.00
2022-10-26T01:27:49.662Z,0.00
2022-10-26T01:28:49.481Z,0.00
2022-10-26T01:29:49.476Z,0.00
2022-10-26T01:30:49.459Z,0.00
2022-10-26T01:31:49.449Z,0.00
2022-10-26T01:32:49.437Z,0.00
2022-10-26T01:33:49.420Z,0.00
2022-10-26T01:34:49.425Z,0.00
2022-10-26T01:35:49.401Z,0.00
2022-10-26T01:36:49.390Z,0.00
2022-10-26T01:37:49.630Z,0.00
2022-10-26T01:38:49.373Z,0.00
2022-10-26T01:39:49.363Z,0.00
2022-10-26T01:40:49.352Z,0.00
2022-10-26T01:41:49.332Z,0.00
2022-10-26T01:42:49.325Z,0.00
2022-10-26T01:43:49.309Z,0.00
2022-10-26T01:44:49.398Z,0.00
2022-10-26T01:45:49.288Z,0.00
2022-10-26T01:46:49.283Z,0.00
2022-10-26T01:47:49.582Z,0.00
2022-10-26T01:48:49.260Z,0.00
2022-10-26T01:49:49.251Z,0.00
2022-10-26T01:50:49.237Z,0.00
2022-10-26T01:51:49.220Z,0.00
2022-10-26T01:52:49.217Z,0.00
2022-10-26T01:53:49.199Z,0.00
2022-10-26T01:54:49.210Z,0.00
2022-10-26T01:55:49.209Z,0.00
2022-10-26T01:56:49.174Z,0.00
2022-10-26T01:57:49.420Z,0.00
2022-10-26T01:58:49.152Z,0.00
2022-10-26T01:59:49.145Z,0.00
2022-10-26T02:00:49.126Z,0.00
2022-10-26T02:01:49.200Z,0.00
2022-10-26T02:02:49.103Z,0.00
2022-10-26T02:03:49.161Z,0.00
2022-10-26T02:04:49.109Z,0.00
2022-10-26T02:05:49.065Z,0.00
2022-10-26T02:06:49.064Z,0.00
2022-10-26T02:07:49.324Z,0.00
2022-10-26T02:08:49.037Z,0.00
2022-10-26T02:09:49.057Z,0.00
2022-10-26T02:10:49.013Z,0.00
2022-10-26T02:11:49.033Z,0.00
2022-10-26T02:12:48.991Z,0.00
2022-10-26T02:13:48.975Z,0.00
2022-10-26T02:14:49.013Z,0.00
2022-10-26T02:15:48.955Z,0.00
2022-10-26T02:16:48.946Z,0.00
2022-10-26T02:17:49.285Z,0.00
2022-10-26T02:18:48.925Z,0.00
2022-10-26T02:19:48.918Z,0.00
2022-10-26T02:20:48.911Z,0.00
2022-10-26T02:21:48.888Z,0.00
2022-10-26T02:22:48.881Z,0.00
2022-10-26T02:23:48.864Z,0.00
2022-10-26T02:24:48.872Z,0.00
2022-10-26T02:25:48.842Z,0.00
2022-10-26T02:26:48.835Z,0.00
2022-10-26T02:27:49.103Z,0.00
2022-10-26T02:28:48.812Z,0.00
2022-10-26T02:29:48.806Z,0.00
2022-10-26T02:30:48.794Z,0.00
2022-10-26T02:31:48.775Z,0.00
2022-10-26T02:32:48.767Z,0.00
2022-10-26T02:34:48.765Z,0.00
2022-10-26T02:35:48.730Z,0.00
2022-10-26T02:36:48.725Z,0.00
2022-10-26T02:37:48.978Z,0.00
2022-10-26T02:38:48.705Z,0.00
2022-10-26T02:39:48.696Z,0.00
2022-10-26T02:40:48.679Z,0.00
2022-10-26T02:41:48.665Z,0.00
2022-10-26T02:42:48.657Z,0.00
2022-10-26T02:43:48.642Z,0.00
2022-10-26T02:44:48.643Z,0.00
2022-10-26T02:45:48.619Z,0.00
2022-10-26T02:46:48.613Z,0.00
2022-10-26T02:47:48.965Z,0.00
2022-10-26T02:48:48.590Z,0.00
2022-10-26T02:49:48.581Z,0.00
2022-10-26T02:50:48.566Z,0.00
2022-10-26T02:52:48.919Z,0.00
2022-10-26T02:53:48.528Z,0.00
2022-10-26T02:54:48.532Z,0.00
2022-10-26T02:55:48.509Z,0.00
2022-10-26T02:56:48.503Z,0.00
2022-10-26T02:57:48.485Z,0.00
2022-10-26T02:58:48.477Z,0.00
2022-10-26T02:59:48.472Z,0.00
2022-10-26T03:00:48.455Z,0.00
2022-10-26T03:01:48.525Z,0.00
2022-10-26T03:02:48.795Z,0.00
2022-10-26T03:03:48.494Z,0.00
2022-10-26T03:04:48.422Z,0.00
2022-10-26T03:05:48.398Z,0.00
2022-10-26T03:06:48.389Z,0.00
2022-10-26T03:07:48.374Z,0.00
2022-10-26T03:08:48.371Z,0.00
2022-10-26T03:09:48.360Z,0.00
2022-10-26T03:10:48.346Z,0.00
2022-10-26T03:11:48.332Z,0.00
2022-10-26T03:12:48.703Z,0.00
2022-10-26T03:13:48.307Z,0.00
2022-10-26T03:14:48.307Z,0.00
2022-10-26T03:15:48.285Z,0.00
2022-10-26T03:16:48.360Z,0.00
2022-10-26T03:17:48.567Z,0.00
2022-10-26T03:18:48.257Z,0.00
2022-10-26T03:19:48.248Z,0.00
2022-10-26T03:20:48.245Z,0.00
2022-10-26T03:21:48.219Z,0.00
2022-10-26T03:22:48.211Z,0.00
2022-10-26T03:23:48.195Z,0.00
2022-10-26T03:24:48.237Z,0.00
2022-10-26T03:25:48.172Z,0.00
2022-10-26T03:26:48.166Z,0.00
2022-10-26T03:27:48.409Z,0.00
2022-10-26T03:28:48.144Z,0.00
2022-10-26T03:29:48.137Z,0.00
2022-10-26T03:30:48.123Z,0.00
2022-10-26T03:31:48.105Z,0.00
2022-10-26T03:32:48.098Z,0.00
2022-10-26T03:33:48.084Z,0.00
2022-10-26T03:34:48.085Z,0.00
2022-10-26T03:35:48.061Z,0.00
2022-10-26T03:36:48.050Z,0.00
2022-10-26T03:37:48.362Z,0.00
2022-10-26T03:38:48.029Z,0.00
2022-10-26T03:39:48.030Z,0.00
2022-10-26T03:40:48.007Z,0.00
2022-10-26T03:41:48.084Z,0.00
2022-10-26T03:42:48.310Z,0.00
2022-10-26T03:43:47.971Z,0.00
2022-10-26T03:44:47.997Z,0.00
2022-10-26T03:45:47.948Z,0.00
2022-10-26T03:46:47.941Z,0.00
2022-10-26T03:47:47.929Z,0.00
2022-10-26T03:48:47.955Z,0.00
2022-10-26T03:49:47.913Z,0.00
2022-10-26T03:50:47.897Z,0.00
2022-10-26T03:51:47.882Z,0.00
2022-10-26T03:52:48.306Z,0.00
2022-10-26T03:53:48.714Z,0.00
2022-10-26T03:54:47.861Z,0.00
2022-10-26T03:55:47.836Z,0.00
2022-10-26T03:56:51.365Z,0.00
2022-10-26T03:57:47.820Z,0.00
2022-10-26T03:58:47.809Z,0.00
2022-10-26T03:59:47.834Z,0.00
2022-10-26T04:00:47.789Z,0.00
2022-10-26T04:01:47.849Z,0.00
2022-10-26T04:02:48.251Z,0.00
2022-10-26T04:03:47.793Z,0.00
2022-10-26T04:04:47.740Z,0.00
2022-10-26T04:05:47.737Z,0.00
2022-10-26T04:06:47.752Z,0.00
2022-10-26T04:07:48.020Z,0.00
2022-10-26T04:08:47.712Z,0.00
2022-10-26T04:09:47.681Z,0.00
2022-10-26T04:10:47.674Z,0.00
2022-10-26T04:11:47.657Z,0.00
2022-10-26T04:12:47.652Z,0.00
2022-10-26T04:13:47.644Z,0.00
2022-10-26T04:14:47.630Z,0.00
2022-10-26T04:15:47.618Z,0.00
2022-10-26T04:16:47.606Z,0.00
2022-10-26T04:17:47.978Z,0.00
2022-10-26T04:18:47.593Z,0.00
2022-10-26T04:19:47.569Z,0.00
2022-10-26T04:20:47.560Z,0.00
2022-10-26T04:21:47.545Z,0.00
2022-10-26T04:22:47.538Z,0.00
2022-10-26T04:23:47.541Z,0.00
2022-10-26T04:24:47.518Z,0.00
2022-10-26T04:25:47.502Z,0.00
2022-10-26T04:26:47.497Z,0.00
2022-10-26T04:27:47.869Z,0.00
2022-10-26T04:28:47.481Z,0.00
2022-10-26T04:29:47.457Z,0.00
2022-10-26T04:30:47.450Z,0.00
2022-10-26T04:31:47.436Z,0.00
2022-10-26T04:32:47.780Z,0.00
2022-10-26T04:33:47.420Z,0.00
2022-10-26T04:34:47.404Z,0.00
2022-10-26T04:35:47.388Z,0.00
2022-10-26T04:36:47.385Z,0.00
2022-10-26T04:37:47.371Z,0.00
2022-10-26T04:38:47.368Z,0.00
2022-10-26T04:39:47.345Z,0.00
2022-10-26T04:40:47.338Z,0.00
2022-10-26T04:41:47.320Z,0.00
2022-10-26T04:42:47.773Z,0.00
2022-10-26T04:43:47.317Z,0.00
2022-10-26T04:44:47.295Z,0.00
2022-10-26T04:45:47.278Z,0.00
2022-10-26T04:46:47.270Z,0.00
2022-10-26T04:47:47.254Z,0.00
2022-10-26T04:48:47.257Z,0.00
2022-10-26T04:49:47.234Z,0.00
2022-10-26T04:50:47.227Z,0.00
2022-10-26T04:51:47.209Z,0.00
2022-10-26T04:52:47.607Z,0.00
2022-10-26T04:53:47.196Z,0.00
2022-10-26T04:54:47.181Z,0.00
2022-10-26T04:55:47.164Z,0.00
2022-10-26T04:57:47.456Z,0.00
2022-10-26T04:58:47.144Z,0.00
2022-10-26T04:59:47.120Z,0.00
2022-10-26T05:00:47.114Z,0.00
2022-10-26T05:01:47.256Z,0.00
2022-10-26T05:02:47.090Z,0.00
2022-10-26T05:03:47.095Z,0.00
2022-10-26T05:04:47.133Z,0.00
2022-10-26T05:05:47.055Z,0.00
2022-10-26T05:06:47.045Z,0.00
2022-10-26T05:07:47.369Z,0.00
2022-10-26T05:08:47.031Z,0.00
2022-10-26T05:09:47.010Z,0.00
2022-10-26T05:10:47.003Z,0.00
2022-10-26T05:11:46.984Z,0.00
2022-10-26T05:12:46.984Z,0.00
2022-10-26T05:13:46.971Z,0.00
2022-10-26T05:14:46.956Z,0.00
2022-10-26T05:15:46.946Z,0.00
2022-10-26T05:16:46.933Z,0.00
2022-10-26T05:17:47.291Z,0.00
2022-10-26T05:18:46.922Z,0.00
2022-10-26T05:19:46.898Z,0.00
2022-10-26T05:20:46.962Z,0.00
2022-10-26T05:21:46.875Z,0.00
2022-10-26T05:22:47.062Z,0.00
2022-10-26T05:23:46.850Z,0.00
2022-10-26T05:24:46.886Z,0.00
2022-10-26T05:25:46.828Z,0.00
2022-10-26T05:26:46.821Z,0.00
2022-10-26T05:27:46.818Z,0.00
2022-10-26T05:28:46.801Z,0.00
2022-10-26T05:29:46.784Z,0.00
2022-10-26T05:30:46.783Z,0.00
2022-10-26T05:31:46.799Z,0.00
2022-10-26T05:32:46.979Z,0.00
2022-10-26T05:33:46.748Z,0.00
2022-10-26T05:34:46.738Z,0.00
2022-10-26T05:35:46.716Z,0.00
2022-10-26T05:36:46.711Z,0.00
2022-10-26T05:37:46.695Z,0.00
2022-10-26T05:38:46.699Z,0.00
2022-10-26T05:39:46.678Z,0.00
2022-10-26T05:40:46.664Z,0.00
2022-10-26T05:41:46.648Z,0.00
2022-10-26T05:42:46.921Z,0.00
2022-10-26T05:43:46.640Z,0.00
2022-10-26T05:44:46.621Z,0.00
2022-10-26T05:45:46.608Z,0.00
2022-10-26T05:46:46.706Z,0.00
2022-10-26T05:47:46.836Z,0.00
2022-10-26T05:48:46.584Z,0.00
2022-10-26T05:49:46.561Z,0.00
2022-10-26T05:50:46.553Z,0.00
2022-10-26T05:51:46.540Z,0.00
2022-10-26T05:52:46.533Z,0.00
2022-10-26T05:53:46.523Z,0.00
2022-10-26T05:54:46.538Z,0.00
2022-10-26T05:55:46.493Z,0.00
2022-10-26T05:56:46.487Z,0.00
2022-10-26T05:57:46.617Z,0.00
2022-10-26T05:58:46.476Z,0.00
2022-10-26T05:59:46.448Z,0.00
2022-10-26T06:00:46.441Z,0.00
2022-10-26T06:01:46.539Z,0.00
2022-10-26T06:02:46.579Z,0.00
2022-10-26T06:03:46.411Z,0.00
2022-10-26T06:04:46.398Z,0.00
2022-10-26T06:05:46.381Z,0.00
2022-10-26T06:06:46.374Z,0.00
2022-10-26T06:07:46.458Z,0.00
2022-10-26T06:08:46.359Z,0.00
2022-10-26T06:09:46.342Z,0.00
2022-10-26T06:10:46.332Z,0.00
2022-10-26T06:11:46.399Z,0.00
2022-10-26T06:12:46.491Z,0.00
2022-10-26T06:13:46.302Z,0.00
2022-10-26T06:14:46.284Z,0.00
2022-10-26T06:15:46.269Z,0.00
2022-10-26T06:16:46.265Z,0.00
2022-10-26T06:17:46.248Z,0.00
2022-10-26T06:18:46.249Z,0.00
2022-10-26T06:19:46.225Z,0.00
2022-10-26T06:20:46.217Z,0.00
2022-10-26T06:21:46.205Z,0.00
2022-10-26T06:22:46.359Z,0.00
2022-10-26T06:23:46.188Z,0.00
2022-10-26T06:24:46.171Z,0.00
2022-10-26T06:25:46.157Z,5.62
2022-10-26T06:26:46.151Z,5.62
2022-10-26T06:27:46.135Z,5.62
2022-10-26T06:28:48.656Z,5.62
2022-10-26T06:29:46.112Z,5.62
2022-10-26T06:30:46.104Z,5.62
2022-10-26T06:31:46.088Z,5.62
2022-10-26T06:32:46.165Z,5.62
2022-10-26T06:33:46.077Z,5.62
2022-10-26T06:34:46.148Z,5.62
2022-10-26T06:35:46.065Z,5.62
2022-10-26T06:36:46.123Z,11.25
2022-10-26T06:37:46.318Z,11.25
2022-10-26T06:38:46.025Z,11.25
2022-10-26T06:39:48.785Z,11.25
2022-10-26T06:40:46.000Z,11.25
2022-10-26T06:41:45.978Z,11.25
2022-10-26T06:42:45.972Z,16.88
2022-10-26T06:43:45.969Z,16.88
2022-10-26T06:44:45.945Z,16.88
2022-10-26T06:45:45.945Z,22.50
2022-10-26T06:46:45.924Z,22.50
2022-10-26T06:47:46.106Z,28.12
2022-10-26T06:48:45.911Z,28.12
2022-10-26T06:49:45.895Z,28.12
2022-10-26T06:50:45.891Z,28.12
2022-10-26T06:51:45.874Z,28.12
2022-10-26T06:52:45.874Z,28.12
2022-10-26T06:53:45.860Z,28.12
2022-10-26T06:54:45.833Z,33.75
2022-10-26T06:55:45.829Z,33.75
2022-10-26T06:56:45.812Z,33.75
2022-10-26T06:57:45.806Z,33.75
2022-10-26T06:58:45.808Z,33.75
2022-10-26T06:59:45.782Z,33.75
2022-10-26T07:00:45.772Z,33.75
2022-10-26T07:01:45.930Z,33.75
2022-10-26T07:02:45.790Z,39.38
2022-10-26T07:03:45.737Z,39.38
2022-10-26T07:04:45.733Z,39.38
2022-10-26T07:05:45.716Z,39.38
2022-10-26T07:06:45.701Z,45.00
2022-10-26T07:07:45.696Z,39.38
2022-10-26T07:08:45.680Z,39.38
2022-10-26T07:09:45.680Z,39.38
2022-10-26T07:10:45.656Z,39.38
2022-10-26T07:11:45.650Z,39.38
2022-10-26T07:12:45.636Z,45.00
2022-10-26T07:13:45.637Z,45.00
2022-10-26T07:14:45.613Z,45.00
2022-10-26T07:15:45.607Z,50.62
2022-10-26T07:16:45.589Z,45.00
2022-10-26T07:17:45.583Z,45.00
2022-10-26T07:18:45.589Z,45.00
2022-10-26T07:19:45.561Z,45.00
2022-10-26T07:20:45.544Z,45.00
2022-10-26T07:21:45.541Z,39.38
2022-10-26T07:22:45.522Z,39.38
2022-10-26T07:23:45.517Z,45.00
2022-10-26T07:24:45.529Z,45.00
2022-10-26T07:25:45.493Z,78.75
2022-10-26T07:26:45.477Z,56.25
2022-10-26T07:27:45.471Z,45.00
2022-10-26T07:28:45.473Z,45.00
2022-10-26T07:29:45.448Z,45.00
2022-10-26T07:30:45.432Z,39.38
2022-10-26T07:31:45.493Z,39.38
2022-10-26T07:32:45.412Z,39.38
2022-10-26T07:33:45.424Z,33.75
2022-10-26T07:34:45.404Z,33.75
2022-10-26T07:35:45.383Z,33.75
2022-10-26T07:36:45.367Z,33.75
2022-10-26T07:37:45.358Z,33.75
2022-10-26T07:38:45.341Z,33.75
2022-10-26T07:39:45.345Z,33.75
2022-10-26T07:40:45.320Z,39.38
2022-10-26T07:41:45.417Z,39.38
2022-10-26T07:42:47.666Z,45.00
2022-10-26T07:43:45.316Z,45.00
2022-10-26T07:44:45.290Z,50.62
2022-10-26T07:45:45.279Z,50.62
2022-10-26T07:46:45.257Z,50.62
2022-10-26T07:47:45.260Z,50.62
2022-10-26T07:49:45.237Z,50.62
2022-10-26T07:50:45.214Z,56.25
2022-10-26T07:51:45.197Z,56.25
2022-10-26T07:52:45.191Z,56.25
2022-10-26T07:53:45.176Z,56.25
2022-10-26T07:54:45.185Z,56.25
2022-10-26T07:55:45.153Z,61.88
2022-10-26T07:56:45.152Z,61.88
2022-10-26T07:57:45.573Z,61.88
2022-10-26T07:58:45.126Z,61.88
2022-10-26T07:59:45.116Z,61.88
2022-10-26T08:00:45.154Z,61.88
2022-10-26T08:01:45.138Z,61.88
2022-10-26T08:02:45.078Z,61.88
2022-10-26T08:03:45.068Z,61.88
2022-10-26T08:04:45.127Z,61.88
2022-10-26T08:05:45.048Z,61.88
2022-10-26T08:06:45.038Z,61.88
2022-10-26T08:07:45.017Z,61.88
2022-10-26T08:08:47.361Z,61.88
2022-10-26T08:09:45.007Z,61.88
2022-10-26T08:10:44.989Z,61.88
2022-10-26T08:11:44.973Z,61.88
2022-10-26T08:12:44.967Z,61.88
2022-10-26T08:13:45.014Z,61.88
2022-10-26T08:14:44.954Z,61.88
2022-10-26T08:15:44.934Z,61.88
2022-10-26T08:16:44.922Z,61.88
2022-10-26T08:17:44.906Z,61.88
2022-10-26T08:18:44.920Z,67.50
2022-10-26T08:19:44.892Z,67.50
2022-10-26T08:20:44.879Z,67.50
2022-10-26T08:21:44.871Z,67.50
2022-10-26T08:22:44.860Z,67.50
2022-10-26T08:23:44.843Z,73.12
2022-10-26T08:24:44.856Z,73.12
2022-10-26T08:25:44.818Z,73.12
2022-10-26T08:26:44.812Z,78.75
2022-10-26T08:27:44.793Z,84.38
2022-10-26T08:28:44.787Z,90.00
2022-10-26T08:29:44.778Z,90.00
2022-10-26T08:30:44.773Z,90.00
2022-10-26T08:31:44.751Z,90.00
2022-10-26T08:32:44.745Z,95.62
2022-10-26T08:33:45.389Z,101.25
2022-10-26T08:34:45.389Z,101.25
2022-10-26T08:35:45.191Z,101.25
2022-10-26T08:36:45.946Z,101.25
2022-10-26T08:37:45.184Z,101.25
2022-10-26T08:38:45.156Z,95.62
2022-10-26T08:39:46.506Z,95.62
2022-10-26T08:40:45.160Z,90.00
2022-10-26T08:41:45.067Z,84.38
2022-10-26T08:42:45.023Z,78.75
2022-10-26T08:43:45.075Z,78.75
2022-10-26T08:44:45.184Z,73.12
2022-10-26T08:45:45.091Z,73.12
2022-10-26T08:46:45.118Z,73.12
2022-10-26T08:47:45.017Z,73.12
2022-10-26T08:48:45.019Z,73.12
2022-10-26T08:49:45.139Z,73.12
2022-10-26T08:50:45.033Z,73.12
2022-10-26T08:51:45.529Z,67.50
2022-10-26T08:52:45.142Z,73.12
2022-10-26T08:53:45.016Z,73.12
2022-10-26T08:54:45.117Z,73.12
2022-10-26T08:55:45.076Z,67.50
2022-10-26T08:56:47.276Z,73.12
2022-10-26T08:57:44.924Z,67.50
2022-10-26T08:58:45.091Z,73.12
2022-10-26T08:59:45.118Z,67.50
2022-10-26T09:00:44.913Z,73.12
2022-10-26T09:01:45.084Z,73.12
2022-10-26T09:02:45.014Z,73.12
2022-10-26T09:03:44.865Z,73.12
2022-10-26T09:04:45.505Z,73.12
2022-10-26T09:05:45.086Z,73.12
2022-10-26T09:06:44.912Z,73.12
2022-10-26T09:07:44.744Z,67.50
2022-10-26T09:08:45.567Z,67.50
2022-10-26T09:09:45.012Z,73.12
2022-10-26T09:10:45.844Z,73.12
2022-10-26T09:11:45.543Z,73.12
2022-10-26T09:12:44.855Z,73.12
2022-10-26T09:13:44.836Z,78.75
2022-10-26T09:14:44.793Z,84.38
2022-10-26T09:15:44.908Z,90.00
2022-10-26T09:16:45.575Z,95.62
2022-10-26T09:17:44.780Z,95.62
2022-10-26T09:18:44.635Z,101.25
2022-10-26T09:19:44.883Z,101.25
2022-10-26T09:20:45.247Z,101.25
2022-10-26T09:21:45.513Z,101.25
2022-10-26T09:22:44.744Z,101.25
2022-10-26T09:23:45.556Z,101.25
2022-10-26T09:24:45.447Z,101.25
2022-10-26T09:25:44.721Z,106.88
2022-10-26T09:26:44.637Z,106.88
2022-10-26T09:27:44.641Z,101.25
2022-10-26T09:28:44.590Z,95.62
2022-10-26T09:29:44.702Z,90.00
2022-10-26T09:30:44.559Z,90.00
2022-10-26T09:31:45.483Z,84.38
2022-10-26T09:32:44.467Z,84.38
2022-10-26T09:33:44.592Z,78.75
2022-10-26T09:34:44.532Z,78.75
2022-10-26T09:35:44.599Z,78.75
2022-10-26T09:36:44.547Z,84.38
2022-10-26T09:37:44.504Z,84.38
2022-10-26T09:38:44.513Z,78.75
2022-10-26T09:39:44.622Z,78.75
2022-10-26T09:40:45.242Z,73.12
2022-10-26T09:41:44.584Z,73.12
2022-10-26T09:42:44.391Z,73.12
2022-10-26T09:43:44.435Z,73.12
2022-10-26T09:44:44.504Z,73.12
2022-10-26T09:45:44.417Z,67.50
2022-10-26T09:46:44.315Z,67.50
2022-10-26T09:47:44.322Z,67.50
2022-10-26T09:48:44.174Z,67.50
2022-10-26T09:49:44.593Z,61.88
2022-10-26T09:50:44.294Z,61.88
2022-10-26T09:51:44.300Z,61.88
2022-10-26T09:52:44.308Z,61.88
2022-10-26T09:53:44.163Z,61.88
2022-10-26T09:54:44.424Z,61.88
2022-10-26T09:55:44.226Z,61.88
2022-10-26T09:56:44.287Z,61.88
2022-10-26T09:57:44.044Z,61.88
2022-10-26T09:58:44.171Z,61.88
2022-10-26T09:59:44.513Z,61.88
2022-10-26T10:00:44.318Z,61.88
2022-10-26T10:01:44.231Z,61.88
2022-10-26T10:02:44.260Z,61.88
2022-10-26T10:03:44.339Z,61.88
2022-10-26T10:04:44.134Z,61.88
2022-10-26T10:05:52.705Z,61.88
2022-10-26T10:06:44.155Z,61.88
2022-10-26T10:07:44.083Z,67.50
2022-10-26T10:08:44.003Z,67.50
2022-10-26T10:09:44.331Z,67.50
2022-10-26T10:10:44.287Z,67.50
2022-10-26T10:11:45.118Z,61.88
2022-10-26T10:12:44.097Z,61.88
2022-10-26T10:13:43.950Z,61.88
2022-10-26T10:14:43.959Z,61.88
2022-10-26T10:15:44.752Z,61.88
2022-10-26T10:16:44.127Z,61.88
2022-10-26T10:17:43.880Z,61.88
2022-10-26T10:18:43.991Z,67.50
2022-10-26T10:19:43.944Z,67.50
2022-10-26T10:20:44.003Z,61.88
2022-10-26T10:21:44.854Z,61.88
2022-10-26T10:22:44.530Z,67.50
2022-10-26T10:23:43.872Z,67.50
2022-10-26T10:24:43.828Z,73.12
2022-10-26T10:25:43.836Z,73.12
2022-10-26T10:26:43.792Z,78.75
2022-10-26T10:27:43.831Z,73.12
2022-10-26T10:28:43.810Z,73.12
2022-10-26T10:29:43.814Z,78.75
2022-10-26T10:30:43.938Z,84.38
2022-10-26T10:31:44.765Z,95.62
2022-10-26T10:32:43.836Z,101.25
2022-10-26T10:33:43.793Z,106.88
2022-10-26T10:34:43.699Z,112.50
2022-10-26T10:35:43.859Z,123.75
2022-10-26T10:36:43.865Z,123.75
2022-10-26T10:37:44.490Z,129.38
2022-10-26T10:38:43.727Z,135.00
2022-10-26T10:39:43.735Z,129.38
2022-10-26T10:40:43.852Z,118.12
2022-10-26T10:41:43.751Z,118.12
2022-10-26T10:42:43.657Z,123.75
2022-10-26T10:43:43.632Z,123.75
2022-10-26T10:44:43.681Z,123.75
2022-10-26T10:45:44.036Z,123.75
2022-10-26T10:46:43.633Z,118.12
2022-10-26T10:47:43.649Z,118.12
2022-10-26T10:48:43.596Z,118.12
2022-10-26T10:49:43.576Z,118.12
2022-10-26T10:50:44.837Z,106.88
2022-10-26T10:51:43.590Z,106.88
2022-10-26T10:52:43.702Z,106.88
2022-10-26T10:53:43.645Z,106.88
2022-10-26T10:54:43.596Z,118.12
2022-10-26T10:55:43.857Z,118.12
2022-10-26T10:56:43.706Z,118.12
2022-10-26T10:57:43.612Z,118.12
2022-10-26T10:58:44.392Z,106.88
2022-10-26T10:59:43.525Z,106.88
2022-10-26T11:00:43.634Z,101.25
2022-10-26T11:01:43.651Z,101.25
2022-10-26T11:02:43.563Z,95.62
2022-10-26T11:03:43.457Z,95.62
2022-10-26T11:04:43.510Z,95.62
2022-10-26T11:05:43.623Z,101.25
2022-10-26T11:06:43.475Z,106.88
2022-10-26T11:07:43.482Z,106.88
2022-10-26T11:08:43.489Z,106.88
2022-10-26T11:09:43.524Z,101.25
2022-10-26T11:10:43.657Z,95.62
2022-10-26T11:11:45.568Z,95.62
2022-10-26T11:12:43.212Z,95.62
2022-10-26T11:13:43.325Z,90.00
2022-10-26T11:14:45.238Z,90.00
2022-10-26T11:15:43.540Z,73.12
2022-10-26T11:16:43.385Z,73.12
2022-10-26T11:17:43.323Z,73.12
2022-10-26T11:18:43.044Z,73.12
2022-10-26T11:19:43.315Z,67.50
2022-10-26T11:20:43.473Z,73.12
2022-10-26T11:21:43.013Z,73.12
2022-10-26T11:22:43.287Z,73.12
2022-10-26T11:23:43.293Z,73.12
2022-10-26T11:24:43.198Z,67.50
2022-10-26T11:25:43.463Z,67.50
2022-10-26T11:26:45.969Z,61.88
2022-10-26T11:27:43.425Z,61.88
2022-10-26T11:28:43.253Z,67.50
2022-10-26T11:29:45.932Z,67.50
2022-10-26T11:30:43.396Z,73.12
2022-10-26T11:31:43.712Z,67.50
2022-10-26T11:32:43.177Z,73.12
2022-10-26T11:33:44.189Z,73.12
2022-10-26T11:34:43.173Z,73.12
2022-10-26T11:35:43.383Z,73.12
2022-10-26T11:36:43.140Z,73.12
2022-10-26T11:37:43.199Z,78.75
2022-10-26T11:38:56.810Z,78.75
2022-10-26T11:39:43.155Z,78.75
2022-10-26T11:40:43.370Z,78.75
2022-10-26T11:41:43.222Z,78.75
2022-10-26T11:42:43.235Z,73.12
2022-10-26T11:43:43.085Z,73.12
2022-10-26T11:44:43.040Z,73.12
2022-10-26T11:45:43.307Z,73.12
2022-10-26T11:46:43.142Z,73.12
2022-10-26T11:47:43.052Z,73.12
2022-10-26T11:48:43.121Z,73.12
2022-10-26T11:49:43.127Z,73.12
2022-10-26T11:50:43.171Z,73.12
2022-10-26T11:51:43.044Z,73.12
2022-10-26T11:52:42.997Z,73.12
2022-10-26T11:53:42.978Z,73.12
2022-10-26T11:54:42.944Z,67.50
2022-10-26T11:55:43.069Z,67.50
2022-10-26T11:56:43.079Z,67.50
2022-10-26T11:57:43.085Z,67.50
2022-10-26T11:58:42.994Z,67.50
2022-10-26T11:59:42.997Z,67.50
2022-10-26T12:00:43.158Z,61.88
2022-10-26T12:01:43.112Z,61.88
2022-10-26T12:03:42.977Z,61.88
2022-10-26T12:04:42.880Z,61.88
2022-10-26T12:05:43.041Z,61.88
2022-10-26T12:06:42.968Z,61.88
2022-10-26T12:07:42.968Z,61.88
2022-10-26T12:08:42.961Z,61.88
2022-10-26T12:09:42.968Z,61.88
2022-10-26T12:10:43.078Z,61.88
2022-10-26T12:11:42.933Z,67.50
2022-10-26T12:12:42.889Z,67.50
2022-10-26T12:13:42.845Z,67.50
2022-10-26T12:14:43.309Z,67.50
2022-10-26T12:16:02.516Z,61.88
2022-10-26T12:16:43.014Z,61.88
2022-10-26T12:17:42.832Z,61.88
2022-10-26T12:18:55.161Z,61.88
2022-10-26T12:19:42.768Z,61.88
2022-10-26T12:20:42.846Z,67.50
2022-10-26T12:21:42.802Z,67.50
2022-10-26T12:22:42.758Z,61.88
2022-10-26T12:23:51.475Z,61.88
2022-10-26T12:24:42.774Z,61.88
2022-10-26T12:25:42.729Z,61.88
2022-10-26T12:26:42.890Z,67.50
2022-10-26T12:27:42.759Z,61.88
2022-10-26T12:28:42.651Z,61.88
2022-10-26T12:29:42.629Z,67.50
2022-10-26T12:30:42.767Z,67.50
2022-10-26T12:31:42.877Z,67.50
2022-10-26T12:32:43.838Z,61.88
2022-10-26T12:33:42.639Z,67.50
2022-10-26T12:34:42.510Z,67.50
2022-10-26T12:35:42.599Z,61.88
2022-10-26T12:36:42.711Z,61.88
2022-10-26T12:37:42.585Z,67.50
2022-10-26T12:38:42.556Z,67.50
2022-10-26T12:39:42.577Z,67.50
2022-10-26T12:40:42.445Z,67.50
2022-10-26T12:41:42.537Z,67.50
2022-10-26T12:42:43.008Z,67.50
2022-10-26T12:43:42.505Z,67.50
2022-10-26T12:44:42.461Z,67.50
2022-10-26T12:45:42.417Z,67.50
2022-10-26T12:46:42.630Z,67.50
2022-10-26T12:47:42.484Z,67.50
2022-10-26T12:48:42.490Z,67.50
2022-10-26T12:49:42.549Z,61.88
2022-10-26T12:50:42.453Z,61.88
2022-10-26T12:51:42.565Z,61.88
2022-10-26T12:52:42.367Z,61.88
2022-10-26T12:53:45.859Z,61.88
2022-10-26T12:54:42.757Z,61.88
2022-10-26T12:55:42.339Z,61.88
2022-10-26T12:56:42.550Z,61.88
2022-10-26T12:57:42.356Z,61.88
2022-10-26T12:58:42.359Z,61.88
2022-10-26T12:59:42.315Z,61.88
2022-10-26T13:00:42.326Z,61.88
2022-10-26T13:01:43.227Z,61.88
2022-10-26T13:02:42.340Z,61.88
2022-10-26T13:03:42.039Z,61.88
2022-10-26T13:04:42.181Z,61.88
2022-10-26T13:05:42.259Z,61.88
2022-10-26T13:06:42.267Z,67.50
2022-10-26T13:07:42.225Z,67.50
2022-10-26T13:08:42.229Z,67.50